createdAt,value
2023-03-11T00:00:49.647Z,5.77
2023-03-11T00:03:18.708Z,5.74
2023-03-11T00:05:47.041Z,5.69
2023-03-11T00:08:21.679Z,5.64
2023-03-11T00:10:55.502Z,5.58
2023-03-11T00:13:27.038Z,5.51
2023-03-11T00:15:56.385Z,5.47
2023-03-11T00:18:31.847Z,5.42
2023-03-11T00:21:00.913Z,5.39
2023-03-11T00:23:29.274Z,5.39
2023-03-11T00:26:00.068Z,5.37
2023-03-11T00:28:30.462Z,5.35
2023-03-11T00:30:59.696Z,5.34
2023-03-11T00:33:29.492Z,5.32
2023-03-11T00:35:59.167Z,5.28
2023-03-11T00:38:28.731Z,5.24
2023-03-11T00:40:56.833Z,5.21
2023-03-11T00:43:25.213Z,5.19
2023-03-11T00:45:53.332Z,5.17
2023-03-11T00:48:23.646Z,5.14
2023-03-11T00:50:53.040Z,5.11
2023-03-11T00:53:25.110Z,5.06
2023-03-11T00:55:53.481Z,5.05
2023-03-11T00:58:27.392Z,5.04
2023-03-11T01:00:57.550Z,5.04
2023-03-11T01:03:26.530Z,5.05
2023-03-11T01:05:56.255Z,5.05
2023-03-11T01:08:27.256Z,5.05
2023-03-11T01:10:58.441Z,5.04
2023-03-11T01:13:29.486Z,5.02
2023-03-11T01:15:57.689Z,5.01
2023-03-11T01:18:26.076Z,5.00
2023-03-11T01:20:55.058Z,5.00
2023-03-11T01:23:23.266Z,4.98
2023-03-11T01:25:51.346Z,4.97
2023-03-11T01:28:20.084Z,4.95
2023-03-11T01:30:48.884Z,4.94
2023-03-11T01:33:18.854Z,4.93
2023-03-11T01:35:47.261Z,4.94
2023-03-11T01:38:16.334Z,4.95
2023-03-11T01:40:49.017Z,4.96
2023-03-11T01:43:37.355Z,4.97
2023-03-11T01:46:31.747Z,4.98
2023-03-11T01:49:01.905Z,4.98
2023-03-11T01:51:42.907Z,4.98
2023-03-11T01:54:23.523Z,4.97
2023-03-11T01:56:53.219Z,4.98
2023-03-11T01:59:25.604Z,4.97
2023-03-11T02:01:56.100Z,4.97
2023-03-11T02:04:24.804Z,4.97
2023-03-11T02:06:56.472Z,4.96
2023-03-11T02:09:27.201Z,4.93
2023-03-11T02:11:56.787Z,4.90
2023-03-11T02:14:25.016Z,4.87
2023-03-11T02:16:57.895Z,4.84
2023-03-11T02:19:38.693Z,4.81
2023-03-11T02:22:06.838Z,4.77
2023-03-11T02:24:43.924Z,4.77
2023-03-11T02:27:17.373Z,4.76
2023-03-11T02:29:49.755Z,4.76
2023-03-11T02:32:18.366Z,4.77
2023-03-11T02:34:46.580Z,4.79
2023-03-11T02:37:16.233Z,4.81
2023-03-11T02:39:50.523Z,4.81
2023-03-11T02:42:24.306Z,4.81
2023-03-11T02:45:00.593Z,4.81
2023-03-11T02:47:29.962Z,4.82
2023-03-11T02:49:59.701Z,4.81
2023-03-11T02:52:28.724Z,4.80
2023-03-11T02:54:58.256Z,4.80
2023-03-11T02:57:26.420Z,4.80
2023-03-11T02:59:55.214Z,4.80
2023-03-11T03:02:23.520Z,4.80
2023-03-11T03:04:55.090Z,4.81
2023-03-11T03:07:24.936Z,4.80
2023-03-11T03:09:53.219Z,4.80
2023-03-11T03:12:21.394Z,4.77
2023-03-11T03:14:51.318Z,4.72
2023-03-11T03:17:20.073Z,4.69
2023-03-11T03:19:48.500Z,4.67
2023-03-11T03:22:18.520Z,4.64
2023-03-11T03:24:47.152Z,4.62
2023-03-11T03:27:15.277Z,4.59
2023-03-11T03:29:44.063Z,4.57
2023-03-11T03:32:17.291Z,4.55
2023-03-11T03:34:46.049Z,4.52
2023-03-11T03:37:14.154Z,4.48
2023-03-11T03:39:43.477Z,4.45
2023-03-11T03:42:12.544Z,4.44
2023-03-11T03:44:41.387Z,4.42
2023-03-11T03:47:09.974Z,4.40
2023-03-11T03:49:38.680Z,4.39
2023-03-11T03:52:07.288Z,4.38
2023-03-11T03:54:35.440Z,4.39
2023-03-11T03:57:04.410Z,4.37
2023-03-11T03:59:33.234Z,4.37
2023-03-11T04:02:04.562Z,4.36
2023-03-11T04:04:33.737Z,4.37
2023-03-11T04:07:04.562Z,4.36
2023-03-11T04:09:33.419Z,4.38
2023-03-11T04:12:02.270Z,4.37
2023-03-11T04:14:31.632Z,4.36
2023-03-11T04:17:04.165Z,4.35
2023-03-11T04:19:33.099Z,4.34
2023-03-11T04:22:01.284Z,4.33
2023-03-11T04:24:30.418Z,4.31
2023-03-11T04:26:58.951Z,4.32
2023-03-11T04:29:27.101Z,4.31
2023-03-11T04:31:56.000Z,4.31
2023-03-11T04:34:36.070Z,4.30
2023-03-11T04:37:05.036Z,4.30
2023-03-11T04:39:35.124Z,4.31
2023-03-11T04:42:04.150Z,4.33
2023-03-11T04:44:35.582Z,4.33
2023-03-11T04:47:09.722Z,4.33
2023-03-11T04:49:40.437Z,4.35
2023-03-11T04:52:09.240Z,4.37
2023-03-11T04:54:37.472Z,4.37
2023-03-11T04:57:06.218Z,4.38
2023-03-11T04:59:36.034Z,4.40
2023-03-11T05:02:05.137Z,4.41
2023-03-11T05:04:33.790Z,4.43
2023-03-11T05:07:02.030Z,4.44
2023-03-11T05:09:31.425Z,4.45
2023-03-11T05:12:02.714Z,4.46
2023-03-11T05:14:34.975Z,4.52
2023-03-11T05:17:05.422Z,4.57
2023-03-11T05:19:40.856Z,4.62
2023-03-11T05:22:17.152Z,4.65
2023-03-11T05:27:39.631Z,4.71
2023-03-11T05:30:16.610Z,4.74
2023-03-11T05:35:33.781Z,4.81
2023-03-11T05:38:08.257Z,4.85
2023-03-11T05:40:39.012Z,4.91
2023-03-11T05:43:11.478Z,4.97
2023-03-11T05:45:41.099Z,5.02
2023-03-11T05:48:09.373Z,5.08
2023-03-11T05:50:38.239Z,5.14
2023-03-11T05:53:07.718Z,5.19
2023-03-11T05:55:36.591Z,5.22
2023-03-11T05:58:06.777Z,5.21
2023-03-11T06:00:37.068Z,5.22
2023-03-11T06:03:19.468Z,5.23
2023-03-11T06:05:49.712Z,5.27
2023-03-11T06:08:19.823Z,5.33
2023-03-11T06:10:49.004Z,5.37
2023-03-11T06:13:18.203Z,5.39
2023-03-11T06:15:56.760Z,5.41
2023-03-11T06:18:35.969Z,5.39
2023-03-11T06:21:11.181Z,5.37
2023-03-11T06:23:47.243Z,5.33
2023-03-11T06:26:21.367Z,5.36
2023-03-11T06:28:52.351Z,5.39
2023-03-11T06:31:31.258Z,5.46
2023-03-11T06:34:14.565Z,5.52
2023-03-11T06:36:47.447Z,5.55
2023-03-11T06:39:17.991Z,5.60
2023-03-11T06:41:49.226Z,5.61
2023-03-11T06:44:18.047Z,5.56
2023-03-11T06:46:51.922Z,5.51
2023-03-11T06:49:23.801Z,5.53
2023-03-11T06:51:52.165Z,5.62
2023-03-11T06:54:20.554Z,5.73
2023-03-11T06:56:59.057Z,5.82
2023-03-11T06:59:29.726Z,5.95
2023-03-11T07:02:04.884Z,6.34
2023-03-11T07:04:33.923Z,6.86
2023-03-11T07:07:09.071Z,7.10
2023-03-11T07:12:30.588Z,7.34
2023-03-11T07:15:02.279Z,7.41
2023-03-11T07:17:38.307Z,7.35
2023-03-11T07:20:23.070Z,7.26
2023-03-11T07:22:51.745Z,7.14
2023-03-11T07:25:25.791Z,7.03
2023-03-11T07:27:54.751Z,6.99
2023-03-11T07:33:09.120Z,6.84
2023-03-11T07:35:40.067Z,6.69
2023-03-11T07:38:08.710Z,6.59
2023-03-11T07:40:37.219Z,6.54
2023-03-11T07:43:05.592Z,6.50
2023-03-11T07:45:35.312Z,6.51
2023-03-11T07:48:04.050Z,6.53
2023-03-11T07:50:33.424Z,6.55
2023-03-11T07:53:01.589Z,6.58
2023-03-11T07:55:32.553Z,6.56
2023-03-11T07:58:01.195Z,6.53
2023-03-11T08:00:29.622Z,6.54
2023-03-11T08:02:57.960Z,6.61
2023-03-11T08:05:26.037Z,6.67
2023-03-11T08:07:54.424Z,6.76
2023-03-11T08:10:24.084Z,6.91
2023-03-11T08:12:54.914Z,6.97
2023-03-11T08:15:23.215Z,6.98
2023-03-11T08:17:52.621Z,6.95
2023-03-11T08:20:21.001Z,6.94
2023-03-11T08:22:57.923Z,6.94
2023-03-11T08:25:27.189Z,6.92
2023-03-11T08:27:55.469Z,6.91
2023-03-11T08:30:23.951Z,6.89
2023-03-11T08:33:03.191Z,6.89
2023-03-11T08:35:32.259Z,6.93
2023-03-11T08:38:01.110Z,6.98
2023-03-11T08:40:30.267Z,7.07
2023-03-11T08:42:58.358Z,7.18
2023-03-11T08:45:27.181Z,7.26
2023-03-11T08:47:55.483Z,7.29
2023-03-11T08:50:24.126Z,7.27
2023-03-11T08:52:52.238Z,7.22
2023-03-11T08:55:25.216Z,7.17
2023-03-11T08:57:53.377Z,7.13
2023-03-11T09:00:22.996Z,7.08
2023-03-11T09:02:51.387Z,7.04
2023-03-11T09:05:19.542Z,6.98
2023-03-11T09:07:49.926Z,6.95
2023-03-11T09:10:18.403Z,6.95
2023-03-11T09:12:47.564Z,6.99
2023-03-11T09:15:16.894Z,7.01
2023-03-11T09:17:45.696Z,6.98
2023-03-11T09:20:14.745Z,6.90
2023-03-11T09:22:43.588Z,6.85
2023-03-11T09:25:12.488Z,6.83
2023-03-11T09:27:45.139Z,6.83
2023-03-11T09:30:14.472Z,6.82
2023-03-11T09:32:43.023Z,6.76
2023-03-11T09:35:13.231Z,6.70
2023-03-11T09:37:41.571Z,6.63
2023-03-11T09:40:13.413Z,6.53
2023-03-11T09:43:04.841Z,6.45
2023-03-11T09:45:35.164Z,6.38
2023-03-11T09:48:04.542Z,6.29
2023-03-11T09:50:48.772Z,6.19
2023-03-11T09:53:37.977Z,6.07
2023-03-11T09:56:08.760Z,6.00
2023-03-11T09:58:53.705Z,5.94
2023-03-11T10:01:21.914Z,5.88
2023-03-11T10:03:51.511Z,5.83
2023-03-11T10:06:24.548Z,5.78
2023-03-11T10:08:59.352Z,5.79
2023-03-11T10:11:57.296Z,5.81
2023-03-11T10:14:31.986Z,5.81
2023-03-11T10:17:17.173Z,5.82
2023-03-11T10:19:51.721Z,5.84
2023-03-11T10:22:32.105Z,5.84
2023-03-11T10:25:05.502Z,5.85
2023-03-11T10:27:50.159Z,5.88
2023-03-11T10:30:33.813Z,5.95
2023-03-11T10:33:33.168Z,5.99
2023-03-11T10:36:05.233Z,6.03
2023-03-11T10:38:35.415Z,6.07
2023-03-11T10:41:06.452Z,6.10
2023-03-11T10:43:40.772Z,6.16
2023-03-11T10:46:20.819Z,6.24
2023-03-11T10:48:49.422Z,6.28
2023-03-11T10:51:24.610Z,6.31
2023-03-11T10:53:54.572Z,6.29
2023-03-11T10:56:42.979Z,6.26
2023-03-11T10:59:26.479Z,6.24
2023-03-11T11:02:01.292Z,6.26
2023-03-11T11:04:30.922Z,6.28
2023-03-11T11:07:00.738Z,6.33
2023-03-11T11:09:31.149Z,6.41
2023-03-11T11:12:02.111Z,6.49
2023-03-11T11:14:44.468Z,6.54
2023-03-11T11:17:19.954Z,6.57
2023-03-11T11:19:51.794Z,6.57
2023-03-11T11:22:21.933Z,6.60
2023-03-11T11:24:51.810Z,6.62
2023-03-11T11:27:28.699Z,6.63
2023-03-11T11:30:08.957Z,6.63
2023-03-11T11:32:38.781Z,6.64
2023-03-11T11:35:16.741Z,6.64
2023-03-11T11:37:54.089Z,6.63
2023-03-11T11:40:29.139Z,6.66
2023-03-11T11:43:06.137Z,6.69
2023-03-11T11:45:36.140Z,6.66
2023-03-11T11:48:19.912Z,6.60
2023-03-11T11:51:21.756Z,6.55
2023-03-11T11:53:55.821Z,6.45
2023-03-11T11:56:25.687Z,6.38
2023-03-11T11:58:54.886Z,6.36
2023-03-11T12:01:40.342Z,6.34
2023-03-11T12:04:27.532Z,6.31
2023-03-11T12:07:01.429Z,6.32
2023-03-11T12:09:58.619Z,6.32
2023-03-11T12:12:37.184Z,6.33
2023-03-11T12:15:08.235Z,6.36
2023-03-11T12:17:38.470Z,6.38
2023-03-11T12:20:24.486Z,6.38
2023-03-11T12:23:08.008Z,6.36
2023-03-11T12:26:03.593Z,6.34
2023-03-11T12:28:40.971Z,6.32
2023-03-11T12:31:10.882Z,6.34
2023-03-11T12:33:50.675Z,6.34
2023-03-11T12:36:35.188Z,6.38
2023-03-11T12:39:07.253Z,6.44
2023-03-11T12:41:42.321Z,6.50
2023-03-11T12:47:19.190Z,6.54
2023-03-11T12:52:58.087Z,6.55
2023-03-11T12:55:36.593Z,6.57
2023-03-11T12:58:30.491Z,6.59
2023-03-11T13:01:17.618Z,6.62
2023-03-11T13:04:09.044Z,6.68
2023-03-11T13:07:01.038Z,6.72
2023-03-11T13:10:04.847Z,6.75
2023-03-11T13:12:40.735Z,6.78
2023-03-11T13:15:22.688Z,6.80
2023-03-11T13:18:14.032Z,6.83
2023-03-11T13:20:51.787Z,6.90
2023-03-11T13:23:22.823Z,6.92
2023-03-11T13:25:55.844Z,6.91
2023-03-11T13:28:46.463Z,6.90
2023-03-11T13:34:53.827Z,6.90
2023-03-11T13:37:50.768Z,6.91
2023-03-11T13:40:39.340Z,6.92
2023-03-11T13:43:12.176Z,6.95
2023-03-11T13:45:41.303Z,6.97
2023-03-11T13:48:45.444Z,7.00
2023-03-11T13:51:44.297Z,7.03
2023-03-11T13:54:20.264Z,7.04
2023-03-11T13:56:55.073Z,7.05
2023-03-11T13:59:24.371Z,7.10
2023-03-11T14:01:54.087Z,7.13
2023-03-11T14:04:29.561Z,7.16
2023-03-11T14:06:58.255Z,7.19
2023-03-11T14:09:32.037Z,7.20
2023-03-11T14:12:07.891Z,7.23
2023-03-11T14:14:51.219Z,7.26
2023-03-11T14:17:27.596Z,7.28
2023-03-11T14:20:07.088Z,7.29
2023-03-11T14:22:35.253Z,7.31
2023-03-11T14:25:08.886Z,7.32
2023-03-11T14:27:38.186Z,7.32
2023-03-11T14:30:06.851Z,7.34
2023-03-11T14:35:21.351Z,7.39
2023-03-11T14:37:53.938Z,7.42
2023-03-11T14:40:25.914Z,7.47
2023-03-11T14:43:01.977Z,7.50
2023-03-11T14:45:32.869Z,7.52
2023-03-11T14:48:17.305Z,7.58
2023-03-11T14:50:49.664Z,7.62
2023-03-11T14:53:22.505Z,7.67
2023-03-11T14:55:51.974Z,7.72
2023-03-11T14:58:24.060Z,7.75
2023-03-11T15:01:01.271Z,7.76
2023-03-11T15:03:39.734Z,7.78
2023-03-11T15:06:15.156Z,7.81
2023-03-11T15:08:46.404Z,7.86
2023-03-11T15:11:15.394Z,7.89
2023-03-11T15:13:46.544Z,7.91
2023-03-11T15:16:26.763Z,7.93
2023-03-11T15:18:54.878Z,7.97
2023-03-11T15:21:28.574Z,7.97
2023-03-11T15:24:06.565Z,7.97
2023-03-11T15:26:35.918Z,7.97
2023-03-11T15:29:13.195Z,7.99
2023-03-11T15:31:46.879Z,8.00
2023-03-11T15:34:18.178Z,7.99
2023-03-11T15:36:50.378Z,8.01
2023-03-11T15:39:29.043Z,8.02
2023-03-11T15:42:02.127Z,8.03
2023-03-11T15:44:42.239Z,8.04
2023-03-11T15:47:18.336Z,8.04
2023-03-11T15:49:46.595Z,8.04
2023-03-11T15:52:14.745Z,8.06
2023-03-11T15:54:47.400Z,8.07
2023-03-11T15:57:25.301Z,8.07
2023-03-11T15:59:56.221Z,8.07
2023-03-11T16:02:26.430Z,8.08
2023-03-11T16:04:55.071Z,8.10
2023-03-11T16:07:38.252Z,8.09
2023-03-11T16:10:08.909Z,8.06
2023-03-11T16:12:44.783Z,8.05
2023-03-11T16:15:24.874Z,8.06
2023-03-11T16:17:55.543Z,8.07
2023-03-11T16:20:32.315Z,8.09
2023-03-11T16:23:01.644Z,8.11
2023-03-11T16:25:35.106Z,8.13
2023-03-11T16:28:03.521Z,8.16
2023-03-11T16:30:33.783Z,8.17
2023-03-11T16:33:05.205Z,8.19
2023-03-11T16:35:34.317Z,8.21
2023-03-11T16:38:04.622Z,8.24
2023-03-11T16:40:40.066Z,8.27
2023-03-11T16:43:09.306Z,8.29
2023-03-11T16:45:40.020Z,8.33
2023-03-11T16:48:08.261Z,8.37
2023-03-11T16:50:40.686Z,8.39
2023-03-11T16:53:11.825Z,8.41
2023-03-11T16:55:51.093Z,8.43
2023-03-11T16:58:19.544Z,8.46
2023-03-11T17:00:53.349Z,8.47
2023-03-11T17:03:22.129Z,8.50
2023-03-11T17:05:53.915Z,8.52
2023-03-11T17:08:27.859Z,8.53
2023-03-11T17:10:56.242Z,8.54
2023-03-11T17:13:28.790Z,8.58
2023-03-11T17:16:00.497Z,8.62
2023-03-11T17:18:45.926Z,8.66
2023-03-11T17:21:15.222Z,8.68
2023-03-11T17:23:45.310Z,8.71
2023-03-11T17:26:16.849Z,8.74
2023-03-11T17:28:46.932Z,8.79
2023-03-11T17:31:18.520Z,8.83
2023-03-11T17:33:49.698Z,8.84
2023-03-11T17:36:18.401Z,8.84
2023-03-11T17:38:53.987Z,8.82
2023-03-11T17:41:22.845Z,8.79
2023-03-11T17:43:54.120Z,8.74
2023-03-11T17:46:26.756Z,8.69
2023-03-11T17:48:57.232Z,8.67
2023-03-11T17:54:10.395Z,8.63
2023-03-11T17:56:42.560Z,8.64
2023-03-11T17:59:11.336Z,8.64
2023-03-11T18:01:44.852Z,8.66
2023-03-11T18:04:20.164Z,8.67
2023-03-11T18:09:46.568Z,8.70
2023-03-11T18:12:28.319Z,8.72
2023-03-11T18:14:58.511Z,8.71
2023-03-11T18:17:30.073Z,8.70
2023-03-11T18:20:00.733Z,8.69
2023-03-11T18:22:35.569Z,8.69
2023-03-11T18:25:12.704Z,8.71
2023-03-11T18:27:41.176Z,8.74
2023-03-11T18:30:16.366Z,8.78
2023-03-11T18:33:02.271Z,8.80
2023-03-11T18:35:35.367Z,8.81
2023-03-11T18:40:59.368Z,8.88
2023-03-11T18:43:42.105Z,8.93
2023-03-11T18:46:20.464Z,8.95
2023-03-11T18:49:16.185Z,8.99
2023-03-11T18:51:56.163Z,9.02
2023-03-11T18:54:40.366Z,9.06
2023-03-11T18:57:27.168Z,9.08
2023-03-11T18:59:59.604Z,9.09
2023-03-11T19:02:33.402Z,9.08
2023-03-11T19:05:04.405Z,9.06
2023-03-11T19:07:37.140Z,9.07
2023-03-11T19:10:09.646Z,9.10
2023-03-11T19:12:44.420Z,9.14
2023-03-11T19:15:14.248Z,9.17
2023-03-11T19:18:00.522Z,9.20
2023-03-11T19:20:34.984Z,9.22
2023-03-11T19:23:03.411Z,9.26
2023-03-11T19:25:33.186Z,9.28
2023-03-11T19:28:01.999Z,9.31
2023-03-11T19:30:33.292Z,9.34
2023-03-11T19:33:02.346Z,9.37
2023-03-11T19:35:31.036Z,9.40
2023-03-11T19:38:06.608Z,9.43
2023-03-11T19:40:36.225Z,9.46
2023-03-11T19:43:05.863Z,9.46
2023-03-11T19:45:35.244Z,9.47
2023-03-11T19:48:04.049Z,9.47
2023-03-11T19:50:33.947Z,9.48
2023-03-11T19:53:02.312Z,9.49
2023-03-11T19:55:30.792Z,9.49
2023-03-11T19:58:01.030Z,9.48
2023-03-11T20:00:30.630Z,9.47
2023-03-11T20:03:02.438Z,9.46
2023-03-11T20:05:31.497Z,9.44
2023-03-11T20:07:59.952Z,9.42
2023-03-11T20:10:33.381Z,9.39
2023-03-11T20:13:04.773Z,9.35
2023-03-11T20:15:33.131Z,9.32
2023-03-11T20:18:06.242Z,9.28
2023-03-11T20:20:35.372Z,9.25
2023-03-11T20:23:04.146Z,9.22
2023-03-11T20:25:40.207Z,9.18
2023-03-11T20:28:09.138Z,9.14
2023-03-11T20:30:38.104Z,9.11
2023-03-11T20:33:07.300Z,9.09
2023-03-11T20:35:37.106Z,9.06
2023-03-11T20:38:05.844Z,9.04
2023-03-11T20:40:35.407Z,9.03
2023-03-11T20:43:04.495Z,9.01
2023-03-11T20:45:33.490Z,9.00
2023-03-11T20:48:02.561Z,8.97
2023-03-11T20:50:31.411Z,8.95
2023-03-11T20:52:59.959Z,8.93
2023-03-11T20:55:28.034Z,8.92
2023-03-11T20:57:56.487Z,8.91
2023-03-11T21:00:30.000Z,8.90
2023-03-11T21:03:00.565Z,8.89
2023-03-11T21:05:29.473Z,8.89
2023-03-11T21:07:57.571Z,8.89
2023-03-11T21:10:26.193Z,8.88
2023-03-11T21:12:56.167Z,8.88
2023-03-11T21:15:26.113Z,8.86
2023-03-11T21:17:56.202Z,8.85
2023-03-11T21:20:25.770Z,8.84
2023-03-11T21:22:54.862Z,8.82
2023-03-11T21:25:28.708Z,8.80
2023-03-11T21:27:57.426Z,8.79
2023-03-11T21:30:27.234Z,8.78
2023-03-11T21:32:55.716Z,8.78
2023-03-11T21:35:24.259Z,8.78
2023-03-11T21:37:54.558Z,8.79
2023-03-11T21:40:23.303Z,8.80
2023-03-11T21:42:51.944Z,8.80
2023-03-11T21:45:20.510Z,8.80
2023-03-11T21:47:49.050Z,8.81
2023-03-11T21:50:26.944Z,8.81
2023-03-11T21:52:57.452Z,8.81
2023-03-11T21:55:25.868Z,8.80
2023-03-11T21:57:54.009Z,8.80
2023-03-11T22:00:23.474Z,8.79
2023-03-11T22:02:52.649Z,8.79
2023-03-11T22:05:21.151Z,8.78
2023-03-11T22:07:49.233Z,8.76
2023-03-11T22:10:18.163Z,8.74
2023-03-11T22:12:49.490Z,8.73
2023-03-11T22:15:18.423Z,8.72
2023-03-11T22:17:48.428Z,8.71
2023-03-11T22:20:17.358Z,8.70
2023-03-11T22:22:45.588Z,8.69
2023-03-11T22:25:17.069Z,8.70
2023-03-11T22:27:46.123Z,8.70
2023-03-11T22:30:14.628Z,8.70
2023-03-11T22:32:44.373Z,8.69
2023-03-11T22:35:13.456Z,8.69
2023-03-11T22:37:41.654Z,8.68
2023-03-11T22:40:10.519Z,8.67
2023-03-11T22:42:39.120Z,8.67
2023-03-11T22:45:08.996Z,8.65
2023-03-11T22:47:38.692Z,8.64
2023-03-11T22:50:07.549Z,8.61
2023-03-11T22:52:36.262Z,8.58
2023-03-11T22:55:05.240Z,8.55
2023-03-11T22:57:39.024Z,8.51
2023-03-11T23:00:17.356Z,8.46
2023-03-11T23:02:46.597Z,8.38
2023-03-11T23:05:15.703Z,8.30
2023-03-11T23:07:43.972Z,8.24
2023-03-11T23:10:13.656Z,8.20
2023-03-11T23:12:45.736Z,8.16
2023-03-11T23:15:18.476Z,8.09
2023-03-11T23:17:46.745Z,8.02
2023-03-11T23:20:15.429Z,7.96
2023-03-11T23:22:43.896Z,7.91
2023-03-11T23:25:14.654Z,7.87
2023-03-11T23:27:44.240Z,7.86
2023-03-11T23:30:13.926Z,7.83
2023-03-11T23:32:45.743Z,7.81
2023-03-11T23:35:13.929Z,7.78
2023-03-11T23:37:41.984Z,7.76
2023-03-11T23:40:10.656Z,7.72
2023-03-11T23:42:39.274Z,7.68
2023-03-11T23:45:08.194Z,7.65
2023-03-11T23:47:37.018Z,7.61
2023-03-11T23:50:06.699Z,7.58
2023-03-11T23:52:36.285Z,7.54
2023-03-11T23:55:04.838Z,7.50
2023-03-11T23:57:35.901Z,7.48
